createdAt,value
2022-12-27T00:01:26.916Z,16.02
2022-12-27T00:06:30.962Z,15.65
2022-12-27T00:11:33.829Z,9.50
2022-12-27T00:16:38.451Z,11.75
2022-12-27T00:21:41.268Z,7.82
2022-12-27T00:26:44.114Z,5.00
2022-12-27T00:31:48.269Z,5.32
2022-12-27T00:36:51.061Z,5.78
2022-12-27T00:41:53.866Z,5.18
2022-12-27T00:46:58.016Z,7.53
2022-12-27T00:52:00.762Z,8.88
2022-12-27T00:57:03.538Z,10.63
2022-12-27T01:02:07.718Z,13.32
2022-12-27T01:07:10.583Z,8.32
2022-12-27T01:12:13.320Z,30.00
2022-12-27T01:17:17.614Z,11.23
2022-12-27T01:22:21.383Z,6.97
2022-12-27T01:27:24.190Z,9.68
2022-12-27T01:32:28.320Z,10.63
2022-12-27T01:37:31.513Z,8.57
2022-12-27T01:42:51.978Z,5.00
2022-12-27T01:48:02.171Z,3.45
2022-12-27T01:53:10.831Z,6.93
2022-12-27T01:58:18.842Z,8.07
2022-12-27T02:03:26.421Z,6.85
2022-12-27T02:08:37.477Z,6.38
2022-12-27T02:13:44.309Z,2.88
2022-12-27T02:18:48.576Z,6.60
2022-12-27T02:24:16.355Z,7.00
2022-12-27T02:29:35.444Z,15.45
2022-12-27T02:34:49.763Z,8.02
2022-12-27T02:39:53.895Z,9.60
2022-12-27T02:45:15.750Z,8.73
2022-12-27T02:50:36.502Z,3.10
2022-12-27T02:56:16.204Z,7.05
2022-12-27T03:01:47.280Z,9.15
2022-12-27T03:07:16.010Z,10.88
2022-12-27T03:12:43.803Z,14.07
2022-12-27T03:17:55.297Z,10.15
2022-12-27T03:23:19.161Z,8.45
2022-12-27T03:28:45.905Z,14.85
2022-12-27T03:33:51.598Z,8.93
2022-12-27T03:39:04.176Z,8.07
2022-12-27T03:49:33.121Z,7.47
2022-12-27T03:54:38.808Z,12.80
2022-12-27T03:59:41.947Z,9.02
2022-12-27T04:04:46.268Z,10.68
2022-12-27T04:10:06.677Z,4.82
2022-12-27T04:15:27.980Z,5.65
2022-12-27T04:20:51.166Z,6.18
2022-12-27T04:26:11.383Z,13.45
2022-12-27T04:31:31.672Z,13.02
2022-12-27T04:36:35.986Z,15.18
2022-12-27T04:41:56.446Z,11.38
2022-12-27T04:47:16.841Z,15.23
2022-12-27T04:52:41.177Z,14.13
2022-12-27T04:57:44.008Z,13.50
2022-12-27T05:02:46.891Z,23.42
2022-12-27T05:08:09.425Z,10.77
2022-12-27T05:13:30.650Z,20.08
2022-12-27T05:18:33.403Z,12.82
2022-12-27T05:24:00.227Z,11.70
2022-12-27T05:29:08.149Z,11.10
2022-12-27T05:34:10.905Z,17.48
2022-12-27T05:39:14.997Z,16.58
2022-12-27T05:44:17.719Z,9.43
2022-12-27T05:49:20.659Z,17.80
2022-12-27T05:54:24.766Z,16.50
2022-12-27T05:59:27.555Z,22.23
2022-12-27T06:04:30.297Z,23.73
2022-12-27T06:09:34.392Z,21.95
2022-12-27T06:14:37.170Z,16.02
2022-12-27T06:19:39.960Z,11.13
2022-12-27T06:24:44.110Z,10.75
2022-12-27T06:29:46.904Z,22.85
2022-12-27T06:34:49.643Z,19.38
2022-12-27T06:39:53.759Z,8.50
2022-12-27T06:44:56.511Z,20.20
2022-12-27T06:49:59.268Z,22.73
2022-12-27T06:55:03.394Z,14.88
2022-12-27T07:00:07.330Z,18.05
2022-12-27T07:05:10.423Z,17.20
2022-12-27T07:10:14.583Z,12.32
2022-12-27T07:15:17.447Z,18.33
2022-12-27T07:20:20.211Z,18.80
2022-12-27T07:25:24.366Z,18.10
2022-12-27T07:30:27.212Z,21.02
2022-12-27T07:35:29.988Z,17.98
2022-12-27T07:40:37.296Z,21.77
2022-12-27T07:45:40.112Z,19.13
2022-12-27T07:50:42.878Z,15.35
2022-12-27T07:55:47.329Z,17.75
2022-12-27T08:00:52.420Z,10.02
2022-12-27T08:05:55.383Z,13.38
2022-12-27T08:11:05.251Z,25.63
2022-12-27T08:16:11.551Z,13.23
2022-12-27T08:21:14.627Z,14.50
2022-12-27T08:26:18.739Z,17.90
2022-12-27T08:31:21.579Z,13.32
2022-12-27T08:46:51.020Z,13.70
2022-12-27T08:51:53.747Z,13.85
2022-12-27T08:56:57.848Z,10.00
2022-12-27T09:02:00.732Z,8.57
2022-12-27T09:07:03.695Z,12.32
2022-12-27T09:12:09.482Z,9.80
2022-12-27T09:17:12.355Z,9.35
2022-12-27T09:22:15.077Z,9.02
2022-12-27T09:27:19.124Z,19.23
2022-12-27T09:32:21.832Z,13.38
2022-12-27T09:37:24.614Z,14.13
2022-12-27T09:42:59.001Z,19.02
2022-12-27T09:48:13.673Z,14.23
2022-12-27T09:53:21.499Z,10.00
2022-12-27T09:58:38.065Z,18.95
2022-12-27T10:03:40.902Z,14.48
2022-12-27T10:08:52.295Z,11.05
2022-12-27T10:14:02.636Z,17.50
2022-12-27T10:19:20.828Z,10.00
2022-12-27T10:24:27.613Z,18.77
2022-12-27T10:29:34.097Z,19.90
2022-12-27T10:34:38.123Z,12.20
2022-12-27T10:39:41.213Z,9.88
2022-12-27T10:44:45.382Z,14.48
2022-12-27T10:50:05.536Z,20.05
2022-12-27T10:55:35.714Z,12.45
2022-12-27T11:00:39.900Z,10.70
2022-12-27T11:05:42.819Z,10.77
2022-12-27T11:10:45.576Z,13.05
2022-12-27T11:15:59.017Z,16.27
2022-12-27T11:21:02.791Z,15.63
2022-12-27T11:26:07.406Z,20.15
2022-12-27T11:31:15.165Z,14.20
2022-12-27T11:36:27.256Z,11.98
2022-12-27T11:41:38.044Z,13.82
2022-12-27T11:46:46.343Z,14.20
2022-12-27T11:52:32.187Z,16.42
2022-12-27T11:57:57.962Z,20.27
2022-12-27T12:03:30.489Z,24.67
2022-12-27T12:09:06.875Z,16.23
2022-12-27T12:14:35.799Z,22.38
2022-12-27T12:20:14.837Z,13.43
2022-12-27T12:25:53.277Z,21.25
2022-12-27T12:31:12.335Z,11.38
2022-12-27T12:36:33.073Z,22.35
2022-12-27T12:42:01.666Z,18.92
2022-12-27T12:47:16.579Z,30.80
2022-12-27T12:52:32.338Z,21.80
2022-12-27T12:57:47.756Z,16.33
2022-12-27T13:03:16.111Z,19.27
2022-12-27T13:08:27.300Z,19.75
2022-12-27T13:13:39.244Z,19.08
2022-12-27T13:18:52.312Z,21.00
2022-12-27T13:24:10.291Z,19.00
2022-12-27T13:29:34.768Z,19.13
2022-12-27T13:34:52.399Z,17.50
2022-12-27T13:40:19.156Z,11.77
2022-12-27T13:45:41.038Z,14.25
2022-12-27T13:51:09.082Z,11.27
2022-12-27T13:56:52.717Z,13.85
2022-12-27T14:02:07.973Z,13.57
2022-12-27T14:07:50.777Z,17.30
2022-12-27T14:13:02.580Z,14.20
2022-12-27T14:18:32.775Z,11.03
2022-12-27T14:23:49.488Z,14.93
2022-12-27T14:29:28.380Z,18.23
2022-12-27T14:34:59.586Z,13.35
2022-12-27T14:40:34.431Z,13.77
2022-12-27T14:46:17.235Z,10.10
2022-12-27T14:52:08.784Z,15.73
2022-12-27T14:57:25.270Z,18.23
2022-12-27T15:02:52.756Z,15.23
2022-12-27T15:08:16.558Z,5.93
2022-12-27T15:13:29.843Z,13.80
2022-12-27T15:18:53.057Z,6.45
2022-12-27T15:24:03.806Z,10.70
2022-12-27T15:29:22.402Z,13.48
2022-12-27T15:34:42.091Z,10.15
2022-12-27T15:39:49.648Z,10.32
2022-12-27T15:45:03.997Z,8.90
2022-12-27T15:50:35.600Z,9.32
2022-12-27T15:56:00.579Z,8.77
2022-12-27T16:01:30.620Z,12.95
2022-12-27T16:06:52.195Z,13.10
2022-12-27T16:12:05.003Z,7.28
2022-12-27T16:17:28.318Z,6.25
2022-12-27T16:22:37.535Z,7.18
2022-12-27T16:27:40.799Z,7.68
2022-12-27T16:32:49.834Z,8.88
2022-12-27T16:37:55.859Z,4.78
2022-12-27T16:43:31.720Z,12.10
2022-12-27T16:48:48.467Z,13.85
2022-12-27T16:54:04.902Z,9.80
2022-12-27T16:59:56.508Z,7.85
2022-12-27T17:05:00.794Z,11.43
2022-12-27T17:10:34.725Z,10.30
2022-12-27T17:15:49.385Z,11.70
2022-12-27T17:21:04.301Z,9.35
2022-12-27T17:26:27.758Z,10.27
2022-12-27T17:31:39.661Z,8.20
2022-12-27T17:36:52.810Z,12.33
2022-12-27T17:42:24.419Z,8.70
2022-12-27T17:47:41.366Z,9.38
2022-12-27T17:53:20.201Z,8.25
2022-12-27T17:58:24.555Z,11.77
2022-12-27T18:03:35.313Z,5.72
2022-12-27T18:08:38.873Z,10.15
2022-12-27T18:13:53.896Z,8.82
2022-12-27T18:18:59.854Z,8.85
2022-12-27T18:24:02.625Z,6.50
2022-12-27T18:29:11.423Z,6.45
2022-12-27T18:34:22.447Z,6.88
2022-12-27T18:39:29.908Z,8.45
2022-12-27T18:44:43.558Z,2.97
2022-12-27T18:49:46.653Z,3.05
2022-12-27T18:54:49.665Z,5.88
2022-12-27T19:00:05.144Z,4.03
2022-12-27T19:05:30.522Z,4.68
2022-12-27T19:10:34.078Z,5.70
2022-12-27T19:15:44.035Z,6.88
2022-12-27T19:20:55.246Z,7.18
2022-12-27T19:26:05.555Z,7.70
2022-12-27T19:31:19.349Z,3.58
2022-12-27T19:36:27.411Z,7.82
2022-12-27T19:41:31.672Z,6.75
2022-12-27T19:46:35.872Z,9.25
2022-12-27T19:51:39.031Z,9.25
2022-12-27T19:56:41.812Z,5.00
2022-12-27T20:01:46.499Z,8.38
2022-12-27T20:06:50.159Z,7.43
2022-12-27T20:11:53.126Z,5.22
2022-12-27T20:16:57.325Z,7.03
2022-12-27T20:22:00.685Z,8.07
2022-12-27T20:27:03.695Z,4.13
2022-12-27T20:32:08.049Z,6.82
2022-12-27T20:37:10.837Z,4.05
2022-12-27T20:42:13.558Z,10.60
2022-12-27T20:47:17.709Z,8.32
2022-12-27T20:52:24.413Z,4.63
2022-12-27T20:57:31.664Z,3.80
2022-12-27T21:02:36.194Z,5.03
2022-12-27T21:07:39.153Z,6.68
2022-12-27T21:12:41.894Z,5.55
2022-12-27T21:17:45.991Z,5.38
2022-12-27T21:22:48.795Z,6.25
2022-12-27T21:27:51.539Z,5.30
2022-12-27T21:32:55.672Z,6.95
2022-12-27T21:37:58.557Z,5.78
2022-12-27T21:43:01.542Z,4.35
2022-12-27T21:48:06.004Z,4.93
2022-12-27T21:53:08.773Z,4.57
2022-12-27T21:58:13.234Z,5.43
2022-12-27T22:03:17.571Z,11.63
2022-12-27T22:08:20.501Z,4.70
2022-12-27T22:13:23.512Z,4.65
2022-12-27T22:18:31.174Z,10.00
2022-12-27T22:23:34.736Z,6.32
2022-12-27T22:28:37.527Z,5.63
2022-12-27T22:33:42.023Z,6.80
2022-12-27T22:38:49.440Z,3.35
2022-12-27T22:43:54.453Z,7.47
2022-12-27T22:49:00.943Z,5.93
2022-12-27T22:54:05.162Z,4.65
2022-12-27T22:59:08.746Z,8.77
2022-12-27T23:04:14.662Z,8.20
2022-12-27T23:09:17.495Z,8.60
2022-12-27T23:14:20.309Z,6.07
2022-12-27T23:19:25.665Z,7.10
2022-12-27T23:24:28.405Z,4.82
2022-12-27T23:29:31.143Z,6.72
2022-12-27T23:34:35.286Z,8.25
2022-12-27T23:39:38.076Z,8.10
2022-12-27T23:44:40.847Z,6.05
2022-12-27T23:49:44.997Z,3.83
2022-12-27T23:54:47.757Z,6.18
2022-12-27T23:59:51.527Z,5.15
